sensor_id;sensor_type;location;lat;lon;timestamp;pressure;altitude;pressure_sealevel;temperature;humidity
41062;BME280;26812;42.662;23.352;2022-12-07T00:01:40;94892.94;;;7.59;71.10
41062;BME280;26812;42.662;23.352;2022-12-07T00:04:08;94897.41;;;7.63;70.79
41062;BME280;26812;42.662;23.352;2022-12-07T00:06:42;94902.47;;;7.51;71.21
41062;BME280;26812;42.662;23.352;2022-12-07T00:09:11;94883.00;;;7.32;72.42
41062;BME280;26812;42.662;23.352;2022-12-07T00:11:37;94878.84;;;7.39;71.77
41062;BME280;26812;42.662;23.352;2022-12-07T00:14:07;94893.94;;;7.35;72.05
41062;BME280;26812;42.662;23.352;2022-12-07T00:16:34;94892.50;;;7.24;72.50
41062;BME280;26812;42.662;23.352;2022-12-07T00:19:00;94877.09;;;7.02;73.07
41062;BME280;26812;42.662;23.352;2022-12-07T00:21:31;94897.13;;;6.91;73.81
41062;BME280;26812;42.662;23.352;2022-12-07T00:23:57;94881.84;;;6.92;73.90
41062;BME280;26812;42.662;23.352;2022-12-07T00:26:57;94888.09;;;7.01;73.99
41062;BME280;26812;42.662;23.352;2022-12-07T00:29:20;94883.47;;;7.06;73.32
41062;BME280;26812;42.662;23.352;2022-12-07T00:31:46;94892.16;;;6.98;74.02
41062;BME280;26812;42.662;23.352;2022-12-07T00:34:15;94885.22;;;6.97;73.58
41062;BME280;26812;42.662;23.352;2022-12-07T00:36:41;94891.22;;;7.08;74.02
41062;BME280;26812;42.662;23.352;2022-12-07T00:39:06;94884.03;;;7.03;74.15
41062;BME280;26812;42.662;23.352;2022-12-07T00:41:31;94897.69;;;7.21;73.22
41062;BME280;26812;42.662;23.352;2022-12-07T00:43:57;94892.03;;;7.22;73.45
41062;BME280;26812;42.662;23.352;2022-12-07T00:46:24;94895.28;;;7.33;73.33
41062;BME280;26812;42.662;23.352;2022-12-07T00:48:51;94888.09;;;7.47;72.72
41062;BME280;26812;42.662;23.352;2022-12-07T00:51:18;94888.19;;;7.42;72.64
41062;BME280;26812;42.662;23.352;2022-12-07T00:53:44;94875.28;;;7.44;73.10
41062;BME280;26812;42.662;23.352;2022-12-07T00:56:24;94876.38;;;7.43;72.40
41062;BME280;26812;42.662;23.352;2022-12-07T00:58:58;94882.91;;;7.51;72.51
41062;BME280;26812;42.662;23.352;2022-12-07T01:01:26;94884.91;;;7.59;72.30
41062;BME280;26812;42.662;23.352;2022-12-07T01:03:52;94889.34;;;7.63;71.72
41062;BME280;26812;42.662;23.352;2022-12-07T01:06:19;94873.56;;;7.62;71.57
41062;BME280;26812;42.662;23.352;2022-12-07T01:08:45;94871.41;;;7.50;71.56
41062;BME280;26812;42.662;23.352;2022-12-07T01:11:16;94878.56;;;7.41;71.86
41062;BME280;26812;42.662;23.352;2022-12-07T01:13:42;94874.94;;;7.32;72.54
41062;BME280;26812;42.662;23.352;2022-12-07T01:16:08;94879.31;;;7.28;72.68
41062;BME280;26812;42.662;23.352;2022-12-07T01:18:35;94875.16;;;7.22;73.09
41062;BME280;26812;42.662;23.352;2022-12-07T01:21:02;94872.88;;;7.29;73.72
41062;BME280;26812;42.662;23.352;2022-12-07T01:23:28;94859.56;;;7.24;73.80
41062;BME280;26812;42.662;23.352;2022-12-07T01:25:58;94869.53;;;7.37;73.74
41062;BME280;26812;42.662;23.352;2022-12-07T01:28:24;94857.47;;;7.34;72.98
41062;BME280;26812;42.662;23.352;2022-12-07T01:31:10;94863.94;;;7.33;73.15
41062;BME280;26812;42.662;23.352;2022-12-07T01:33:47;94850.13;;;7.26;73.25
41062;BME280;26812;42.662;23.352;2022-12-07T01:36:18;94863.56;;;7.40;73.13
41062;BME280;26812;42.662;23.352;2022-12-07T01:38:45;94860.97;;;7.35;73.26
41062;BME280;26812;42.662;23.352;2022-12-07T01:41:12;94860.38;;;7.38;72.99
41062;BME280;26812;42.662;23.352;2022-12-07T01:44:09;94854.09;;;7.29;72.54
41062;BME280;26812;42.662;23.352;2022-12-07T01:46:34;94869.72;;;7.40;72.72
41062;BME280;26812;42.662;23.352;2022-12-07T01:49:00;94869.13;;;7.43;72.78
41062;BME280;26812;42.662;23.352;2022-12-07T01:51:27;94851.81;;;7.22;72.31
41062;BME280;26812;42.662;23.352;2022-12-07T01:53:53;94865.31;;;7.17;72.80
41062;BME280;26812;42.662;23.352;2022-12-07T01:56:24;94846.22;;;6.91;73.96
41062;BME280;26812;42.662;23.352;2022-12-07T01:58:52;94857.78;;;7.05;73.80
41062;BME280;26812;42.662;23.352;2022-12-07T02:01:19;94851.53;;;7.10;73.68
41062;BME280;26812;42.662;23.352;2022-12-07T02:03:45;94827.38;;;6.96;73.50
41062;BME280;26812;42.662;23.352;2022-12-07T02:06:15;94837.25;;;7.14;73.69
41062;BME280;26812;42.662;23.352;2022-12-07T02:08:42;94819.53;;;6.86;73.86
41062;BME280;26812;42.662;23.352;2022-12-07T02:11:08;94838.38;;;6.48;75.96
41062;BME280;26812;42.662;23.352;2022-12-07T02:13:36;94851.84;;;6.76;76.23
41062;BME280;26812;42.662;23.352;2022-12-07T02:27:08;94855.09;;;7.19;74.66
41062;BME280;26812;42.662;23.352;2022-12-07T02:30:02;94848.16;;;7.18;74.54
41062;BME280;26812;42.662;23.352;2022-12-07T02:37:58;94821.06;;;7.20;74.00
41062;BME280;26812;42.662;23.352;2022-12-07T02:40:41;94835.84;;;7.17;74.45
41062;BME280;26812;42.662;23.352;2022-12-07T02:43:19;94832.19;;;7.13;74.10
41062;BME280;26812;42.662;23.352;2022-12-07T02:45:47;94839.53;;;7.07;73.97
41062;BME280;26812;42.662;23.352;2022-12-07T02:48:17;94822.03;;;6.96;74.58
41062;BME280;26812;42.662;23.352;2022-12-07T02:50:47;94809.91;;;6.85;74.63
41062;BME280;26812;42.662;23.352;2022-12-07T02:53:51;94821.53;;;6.94;74.84
41062;BME280;26812;42.662;23.352;2022-12-07T02:56:27;94838.03;;;7.15;74.11
41062;BME280;26812;42.662;23.352;2022-12-07T03:07:29;94822.91;;;6.92;75.57
41062;BME280;26812;42.662;23.352;2022-12-07T03:10:09;94809.13;;;6.98;74.47
41062;BME280;26812;42.662;23.352;2022-12-07T03:12:45;94809.94;;;7.12;74.70
41062;BME280;26812;42.662;23.352;2022-12-07T03:15:21;94794.94;;;6.98;74.02
41062;BME280;26812;42.662;23.352;2022-12-07T03:17:50;94805.00;;;7.06;74.06
41062;BME280;26812;42.662;23.352;2022-12-07T03:20:19;94806.19;;;7.13;74.30
41062;BME280;26812;42.662;23.352;2022-12-07T03:22:46;94816.31;;;7.16;74.09
41062;BME280;26812;42.662;23.352;2022-12-07T03:25:15;94797.53;;;7.03;73.05
41062;BME280;26812;42.662;23.352;2022-12-07T03:27:52;94800.59;;;6.96;73.60
41062;BME280;26812;42.662;23.352;2022-12-07T03:30:24;94801.00;;;6.90;73.43
41062;BME280;26812;42.662;23.352;2022-12-07T03:33:15;94818.63;;;6.77;73.54
41062;BME280;26812;42.662;23.352;2022-12-07T03:35:48;94816.63;;;6.69;74.35
41062;BME280;26812;42.662;23.352;2022-12-07T03:40:48;94820.09;;;6.69;74.54
41062;BME280;26812;42.662;23.352;2022-12-07T03:43:18;94798.56;;;6.61;74.65
41062;BME280;26812;42.662;23.352;2022-12-07T03:45:56;94809.03;;;6.76;74.59
41062;BME280;26812;42.662;23.352;2022-12-07T03:48:36;94816.03;;;6.72;74.65
41062;BME280;26812;42.662;23.352;2022-12-07T03:53:48;94804.06;;;6.83;74.12
41062;BME280;26812;42.662;23.352;2022-12-07T03:56:17;94800.75;;;6.72;74.36
41062;BME280;26812;42.662;23.352;2022-12-07T03:58:43;94797.81;;;6.74;75.35
41062;BME280;26812;42.662;23.352;2022-12-07T04:01:09;94799.25;;;6.66;74.79
41062;BME280;26812;42.662;23.352;2022-12-07T04:03:35;94802.06;;;6.75;74.86
41062;BME280;26812;42.662;23.352;2022-12-07T04:06:01;94785.56;;;6.68;74.86
41062;BME280;26812;42.662;23.352;2022-12-07T04:08:26;94811.75;;;6.71;74.78
41062;BME280;26812;42.662;23.352;2022-12-07T04:10:52;94763.16;;;6.50;75.36
41062;BME280;26812;42.662;23.352;2022-12-07T04:13:17;94796.38;;;6.63;75.65
41062;BME280;26812;42.662;23.352;2022-12-07T04:15:43;94796.69;;;6.61;74.92
41062;BME280;26812;42.662;23.352;2022-12-07T04:18:08;94796.19;;;6.59;74.99
41062;BME280;26812;42.662;23.352;2022-12-07T04:20:33;94778.22;;;6.60;75.07
41062;BME280;26812;42.662;23.352;2022-12-07T04:22:59;94789.97;;;6.77;74.39
41062;BME280;26812;42.662;23.352;2022-12-07T04:25:25;94802.03;;;6.61;74.77
41062;BME280;26812;42.662;23.352;2022-12-07T04:27:50;94759.59;;;6.22;75.54
41062;BME280;26812;42.662;23.352;2022-12-07T04:30:16;94816.63;;;6.36;75.89
41062;BME280;26812;42.662;23.352;2022-12-07T04:32:41;94794.91;;;6.38;75.98
41062;BME280;26812;42.662;23.352;2022-12-07T04:35:07;94784.59;;;6.31;75.78
41062;BME280;26812;42.662;23.352;2022-12-07T04:37:33;94787.97;;;6.37;75.46
41062;BME280;26812;42.662;23.352;2022-12-07T04:39:58;94767.63;;;6.22;75.43
41062;BME280;26812;42.662;23.352;2022-12-07T04:42:24;94769.84;;;6.34;74.57
41062;BME280;26812;42.662;23.352;2022-12-07T04:44:49;94797.00;;;6.41;74.71
41062;BME280;26812;42.662;23.352;2022-12-07T04:47:16;94811.22;;;6.22;75.78
41062;BME280;26812;42.662;23.352;2022-12-07T04:49:41;94818.28;;;6.32;76.21
41062;BME280;26812;42.662;23.352;2022-12-07T04:52:06;94799.94;;;6.26;75.97
41062;BME280;26812;42.662;23.352;2022-12-07T04:54:32;94814.91;;;6.27;75.84
41062;BME280;26812;42.662;23.352;2022-12-07T04:56:57;94762.59;;;6.02;75.72
41062;BME280;26812;42.662;23.352;2022-12-07T04:59:23;94822.97;;;6.40;74.97
41062;BME280;26812;42.662;23.352;2022-12-07T05:01:48;94807.38;;;6.29;74.51
41062;BME280;26812;42.662;23.352;2022-12-07T05:04:13;94808.94;;;6.16;75.00
41062;BME280;26812;42.662;23.352;2022-12-07T05:06:41;94820.56;;;6.25;75.18
41062;BME280;26812;42.662;23.352;2022-12-07T05:09:07;94821.63;;;6.24;75.84
41062;BME280;26812;42.662;23.352;2022-12-07T05:11:33;94825.03;;;6.30;74.78
41062;BME280;26812;42.662;23.352;2022-12-07T05:14:15;94826.06;;;6.15;74.93
41062;BME280;26812;42.662;23.352;2022-12-07T05:16:42;94816.97;;;5.97;75.90
41062;BME280;26812;42.662;23.352;2022-12-07T05:19:08;94816.09;;;6.02;75.96
41062;BME280;26812;42.662;23.352;2022-12-07T05:21:35;94825.63;;;6.08;75.17
41062;BME280;26812;42.662;23.352;2022-12-07T05:24:01;94810.91;;;5.91;75.73
41062;BME280;26812;42.662;23.352;2022-12-07T05:26:27;94806.09;;;5.88;75.94
41062;BME280;26812;42.662;23.352;2022-12-07T05:28:54;94804.16;;;5.94;76.14
41062;BME280;26812;42.662;23.352;2022-12-07T05:31:20;94819.56;;;6.02;76.24
41062;BME280;26812;42.662;23.352;2022-12-07T05:33:45;94816.16;;;5.97;75.75
41062;BME280;26812;42.662;23.352;2022-12-07T05:36:11;94807.72;;;5.89;76.09
41062;BME280;26812;42.662;23.352;2022-12-07T05:38:37;94807.25;;;6.01;75.84
41062;BME280;26812;42.662;23.352;2022-12-07T05:41:04;94799.13;;;5.93;75.83
41062;BME280;26812;42.662;23.352;2022-12-07T05:43:30;94802.13;;;6.05;75.98
41062;BME280;26812;42.662;23.352;2022-12-07T05:45:56;94807.56;;;6.00;76.42
41062;BME280;26812;42.662;23.352;2022-12-07T05:48:22;94812.81;;;6.05;76.50
41062;BME280;26812;42.662;23.352;2022-12-07T05:50:48;94802.13;;;6.05;76.30
41062;BME280;26812;42.662;23.352;2022-12-07T05:53:14;94808.34;;;6.19;76.22
41062;BME280;26812;42.662;23.352;2022-12-07T05:55:40;94806.09;;;6.26;75.55
41062;BME280;26812;42.662;23.352;2022-12-07T05:58:05;94807.69;;;6.27;75.73
41062;BME280;26812;42.662;23.352;2022-12-07T06:00:49;94780.44;;;6.06;75.61
41062;BME280;26812;42.662;23.352;2022-12-07T06:03:14;94810.69;;;6.39;75.77
41062;BME280;26812;42.662;23.352;2022-12-07T06:05:40;94804.69;;;6.47;75.78
41062;BME280;26812;42.662;23.352;2022-12-07T06:08:05;94814.72;;;6.56;75.16
41062;BME280;26812;42.662;23.352;2022-12-07T06:10:31;94810.53;;;6.49;75.04
41062;BME280;26812;42.662;23.352;2022-12-07T06:12:56;94789.91;;;6.50;74.86
41062;BME280;26812;42.662;23.352;2022-12-07T06:15:21;94779.00;;;6.46;74.75
41062;BME280;26812;42.662;23.352;2022-12-07T06:17:48;94787.25;;;6.50;74.89
41062;BME280;26812;42.662;23.352;2022-12-07T06:20:13;94804.00;;;6.56;74.95
41062;BME280;26812;42.662;23.352;2022-12-07T06:22:39;94798.06;;;6.59;75.22
41062;BME280;26812;42.662;23.352;2022-12-07T06:25:04;94802.63;;;6.72;74.38
41062;BME280;26812;42.662;23.352;2022-12-07T06:27:30;94803.53;;;6.67;74.93
41062;BME280;26812;42.662;23.352;2022-12-07T06:29:58;94816.25;;;6.75;74.65
41062;BME280;26812;42.662;23.352;2022-12-07T06:32:23;94814.94;;;6.73;74.85
41062;BME280;26812;42.662;23.352;2022-12-07T06:34:48;94799.06;;;6.63;75.11
41062;BME280;26812;42.662;23.352;2022-12-07T06:37:14;94816.38;;;6.84;75.28
41062;BME280;26812;42.662;23.352;2022-12-07T06:39:39;94824.41;;;6.98;75.07
41062;BME280;26812;42.662;23.352;2022-12-07T06:42:05;94798.41;;;6.98;74.29
41062;BME280;26812;42.662;23.352;2022-12-07T06:44:30;94818.53;;;6.82;74.48
41062;BME280;26812;42.662;23.352;2022-12-07T06:46:56;94794.00;;;6.61;74.65
41062;BME280;26812;42.662;23.352;2022-12-07T06:49:21;94822.22;;;6.86;74.89
41062;BME280;26812;42.662;23.352;2022-12-07T06:51:54;94826.28;;;6.97;74.67
41062;BME280;26812;42.662;23.352;2022-12-07T06:54:26;94819.69;;;7.08;74.74
41062;BME280;26812;42.662;23.352;2022-12-07T06:56:58;94810.66;;;7.18;74.66
41062;BME280;26812;42.662;23.352;2022-12-07T06:59:23;94804.88;;;7.25;73.91
41062;BME280;26812;42.662;23.352;2022-12-07T07:01:49;94801.41;;;7.24;73.35
41062;BME280;26812;42.662;23.352;2022-12-07T07:04:14;94815.41;;;7.35;73.26
41062;BME280;26812;42.662;23.352;2022-12-07T07:06:40;94805.19;;;7.37;72.46
41062;BME280;26812;42.662;23.352;2022-12-07T07:09:05;94828.41;;;7.55;72.93
41062;BME280;26812;42.662;23.352;2022-12-07T07:11:30;94804.97;;;7.47;72.38
41062;BME280;26812;42.662;23.352;2022-12-07T07:13:56;94831.75;;;7.74;71.96
41062;BME280;26812;42.662;23.352;2022-12-07T07:16:24;94816.16;;;7.63;71.76
41062;BME280;26812;42.662;23.352;2022-12-07T07:18:49;94828.88;;;7.71;71.64
41062;BME280;26812;42.662;23.352;2022-12-07T07:21:15;94830.38;;;7.77;71.85
41062;BME280;26812;42.662;23.352;2022-12-07T07:23:40;94827.94;;;7.89;71.77
41062;BME280;26812;42.662;23.352;2022-12-07T07:26:06;94818.13;;;7.98;71.21
41062;BME280;26812;42.662;23.352;2022-12-07T07:28:31;94820.38;;;8.05;70.72
41062;BME280;26812;42.662;23.352;2022-12-07T07:30:56;94817.94;;;8.17;71.02
41062;BME280;26812;42.662;23.352;2022-12-07T07:33:22;94825.47;;;8.29;70.50
41062;BME280;26812;42.662;23.352;2022-12-07T07:35:47;94837.44;;;8.45;70.21
41062;BME280;26812;42.662;23.352;2022-12-07T07:38:13;94832.94;;;8.54;69.35
41062;BME280;26812;42.662;23.352;2022-12-07T07:40:38;94828.56;;;8.58;69.34
41062;BME280;26812;42.662;23.352;2022-12-07T07:43:03;94838.91;;;8.74;68.35
41062;BME280;26812;42.662;23.352;2022-12-07T07:45:29;94832.44;;;8.75;68.60
41062;BME280;26812;42.662;23.352;2022-12-07T07:47:54;94816.63;;;8.73;68.43
41062;BME280;26812;42.662;23.352;2022-12-07T07:50:22;94842.25;;;9.01;67.76
41062;BME280;26812;42.662;23.352;2022-12-07T07:52:47;94827.41;;;9.04;67.58
41062;BME280;26812;42.662;23.352;2022-12-07T07:55:13;94830.03;;;9.26;67.66
41062;BME280;26812;42.662;23.352;2022-12-07T07:57:39;94838.53;;;9.59;67.31
41062;BME280;26812;42.662;23.352;2022-12-07T08:00:08;94843.53;;;10.09;66.40
41062;BME280;26812;42.662;23.352;2022-12-07T08:02:34;94837.41;;;10.69;63.49
41062;BME280;26812;42.662;23.352;2022-12-07T08:05:00;94828.41;;;10.31;61.76
41062;BME280;26812;42.662;23.352;2022-12-07T08:07:27;94824.91;;;10.21;62.45
41062;BME280;26812;42.662;23.352;2022-12-07T08:09:52;94837.88;;;10.11;62.40
41062;BME280;26812;42.662;23.352;2022-12-07T08:12:17;94829.75;;;9.93;62.98
41062;BME280;26812;42.662;23.352;2022-12-07T08:14:43;94825.34;;;9.98;63.34
41062;BME280;26812;42.662;23.352;2022-12-07T08:17:08;94842.91;;;10.04;63.36
41062;BME280;26812;42.662;23.352;2022-12-07T08:19:34;94829.59;;;9.99;63.18
41062;BME280;26812;42.662;23.352;2022-12-07T08:21:59;94821.84;;;9.97;63.22
41062;BME280;26812;42.662;23.352;2022-12-07T08:24:25;94829.78;;;10.11;63.15
41062;BME280;26812;42.662;23.352;2022-12-07T08:26:50;94828.19;;;10.10;63.23
41062;BME280;26812;42.662;23.352;2022-12-07T08:29:16;94833.66;;;9.70;63.33
41062;BME280;26812;42.662;23.352;2022-12-07T08:31:41;94834.22;;;9.10;64.76
41062;BME280;26812;42.662;23.352;2022-12-07T08:34:07;94836.06;;;9.01;66.22
41062;BME280;26812;42.662;23.352;2022-12-07T08:36:32;94811.59;;;9.02;66.13
41062;BME280;26812;42.662;23.352;2022-12-07T08:38:58;94828.00;;;9.32;66.56
41062;BME280;26812;42.662;23.352;2022-12-07T08:41:23;94815.66;;;9.31;66.00
41062;BME280;26812;42.662;23.352;2022-12-07T08:43:51;94826.63;;;9.43;66.50
41062;BME280;26812;42.662;23.352;2022-12-07T08:46:20;94804.94;;;9.40;65.69
41062;BME280;26812;42.662;23.352;2022-12-07T08:48:54;94830.00;;;9.57;65.10
41062;BME280;26812;42.662;23.352;2022-12-07T08:51:21;94825.09;;;9.59;64.72
41062;BME280;26812;42.662;23.352;2022-12-07T08:53:48;94814.75;;;9.44;64.99
41062;BME280;26812;42.662;23.352;2022-12-07T08:56:14;94809.38;;;9.44;65.69
41062;BME280;26812;42.662;23.352;2022-12-07T08:58:39;94816.56;;;9.57;65.42
41062;BME280;26812;42.662;23.352;2022-12-07T09:01:05;94813.09;;;9.65;64.65
41062;BME280;26812;42.662;23.352;2022-12-07T09:03:37;94803.75;;;9.72;64.57
41062;BME280;26812;42.662;23.352;2022-12-07T09:06:03;94796.50;;;9.89;63.82
41062;BME280;26812;42.662;23.352;2022-12-07T09:08:32;94801.59;;;9.91;63.91
41062;BME280;26812;42.662;23.352;2022-12-07T09:11:00;94809.50;;;10.05;63.63
41062;BME280;26812;42.662;23.352;2022-12-07T09:13:25;94802.84;;;10.02;63.20
41062;BME280;26812;42.662;23.352;2022-12-07T09:15:51;94797.25;;;9.64;64.28
41062;BME280;26812;42.662;23.352;2022-12-07T09:18:16;94779.91;;;9.30;64.63
41062;BME280;26812;42.662;23.352;2022-12-07T09:20:41;94786.38;;;9.21;65.46
41062;BME280;26812;42.662;23.352;2022-12-07T09:23:07;94788.28;;;9.20;65.99
41062;BME280;26812;42.662;23.352;2022-12-07T09:25:33;94782.69;;;8.77;67.66
41062;BME280;26812;42.662;23.352;2022-12-07T09:27:59;94792.63;;;8.77;68.55
41062;BME280;26812;42.662;23.352;2022-12-07T09:30:25;94781.25;;;9.11;67.24
41062;BME280;26812;42.662;23.352;2022-12-07T09:32:56;94788.19;;;9.43;66.89
41062;BME280;26812;42.662;23.352;2022-12-07T09:35:22;94746.25;;;9.33;65.89
41062;BME280;26812;42.662;23.352;2022-12-07T09:37:48;94762.59;;;9.71;65.67
41062;BME280;26812;42.662;23.352;2022-12-07T09:40:15;94770.00;;;9.48;65.00
41062;BME280;26812;42.662;23.352;2022-12-07T09:42:46;94767.97;;;9.62;65.27
41062;BME280;26812;42.662;23.352;2022-12-07T09:45:24;94767.28;;;9.40;65.50
41062;BME280;26812;42.662;23.352;2022-12-07T09:47:51;94762.06;;;9.34;66.71
41062;BME280;26812;42.662;23.352;2022-12-07T09:50:21;94763.72;;;9.61;66.48
41062;BME280;26812;42.662;23.352;2022-12-07T09:52:47;94752.53;;;9.20;65.86
41062;BME280;26812;42.662;23.352;2022-12-07T09:55:19;94752.34;;;9.16;67.04
41062;BME280;26812;42.662;23.352;2022-12-07T09:57:46;94753.22;;;9.43;66.85
41062;BME280;26812;42.662;23.352;2022-12-07T10:00:17;94757.06;;;9.68;65.57
41062;BME280;26812;42.662;23.352;2022-12-07T10:02:59;94742.03;;;9.58;65.57
41062;BME280;26812;42.662;23.352;2022-12-07T10:05:42;94749.00;;;9.76;65.14
41062;BME280;26812;42.662;23.352;2022-12-07T10:08:11;94749.31;;;9.75;65.11
41062;BME280;26812;42.662;23.352;2022-12-07T10:10:36;94738.97;;;9.42;65.98
41062;BME280;26812;42.662;23.352;2022-12-07T10:13:11;94737.44;;;9.50;65.92
41062;BME280;26812;42.662;23.352;2022-12-07T10:18:27;94737.31;;;9.98;64.50
41062;BME280;26812;42.662;23.352;2022-12-07T10:23:35;94738.44;;;10.32;64.00
41062;BME280;26812;42.662;23.352;2022-12-07T10:26:26;94734.13;;;10.48;62.49
41062;BME280;26812;42.662;23.352;2022-12-07T10:28:53;94733.75;;;10.75;62.62
41062;BME280;26812;42.662;23.352;2022-12-07T10:31:22;94726.47;;;11.14;61.70
41062;BME280;26812;42.662;23.352;2022-12-07T10:33:59;94694.63;;;11.37;60.46
41062;BME280;26812;42.662;23.352;2022-12-07T10:36:42;94697.97;;;11.63;59.85
41062;BME280;26812;42.662;23.352;2022-12-07T10:39:14;94702.25;;;11.64;58.22
41062;BME280;26812;42.662;23.352;2022-12-07T10:42:00;94669.19;;;11.17;59.14
41062;BME280;26812;42.662;23.352;2022-12-07T10:44:32;94693.53;;;11.00;59.47
41062;BME280;26812;42.662;23.352;2022-12-07T10:50:26;94701.22;;;9.90;63.94
41062;BME280;26812;42.662;23.352;2022-12-07T10:58:03;94688.41;;;10.13;63.93
41062;BME280;26812;42.662;23.352;2022-12-07T11:00:49;94669.81;;;10.46;63.19
41062;BME280;26812;42.662;23.352;2022-12-07T11:06:30;94658.31;;;10.67;62.79
41062;BME280;26812;42.662;23.352;2022-12-07T11:12:05;94660.56;;;11.03;60.47
41062;BME280;26812;42.662;23.352;2022-12-07T11:14:43;94656.91;;;10.99;60.38
41062;BME280;26812;42.662;23.352;2022-12-07T11:20:01;94649.44;;;11.04;59.51
41062;BME280;26812;42.662;23.352;2022-12-07T11:22:40;94665.75;;;10.78;61.15
41062;BME280;26812;42.662;23.352;2022-12-07T11:28:13;94651.38;;;11.04;60.33
41062;BME280;26812;42.662;23.352;2022-12-07T11:31:04;94636.66;;;11.22;58.99
41062;BME280;26812;42.662;23.352;2022-12-07T11:34:16;94611.84;;;11.29;58.47
41062;BME280;26812;42.662;23.352;2022-12-07T11:36:48;94617.56;;;11.06;59.13
41062;BME280;26812;42.662;23.352;2022-12-07T11:41:45;94598.41;;;10.99;58.75
41062;BME280;26812;42.662;23.352;2022-12-07T11:44:32;94632.59;;;11.37;58.97
41062;BME280;26812;42.662;23.352;2022-12-07T11:47:07;94605.34;;;11.09;58.39
41062;BME280;26812;42.662;23.352;2022-12-07T11:52:24;94615.88;;;11.64;58.08
41062;BME280;26812;42.662;23.352;2022-12-07T11:54:52;94603.97;;;11.44;57.79
41062;BME280;26812;42.662;23.352;2022-12-07T11:57:36;94612.88;;;11.66;57.61
41062;BME280;26812;42.662;23.352;2022-12-07T12:00:06;94626.00;;;11.88;56.89
41062;BME280;26812;42.662;23.352;2022-12-07T12:02:46;94599.81;;;11.89;56.77
41062;BME280;26812;42.662;23.352;2022-12-07T12:05:19;94604.50;;;12.12;56.68
41062;BME280;26812;42.662;23.352;2022-12-07T12:07:51;94595.94;;;12.10;56.46
41062;BME280;26812;42.662;23.352;2022-12-07T12:10:40;94580.28;;;12.04;55.82
41062;BME280;26812;42.662;23.352;2022-12-07T12:13:27;94598.47;;;12.28;55.92
41062;BME280;26812;42.662;23.352;2022-12-07T12:16:19;94599.66;;;12.75;54.28
41062;BME280;26812;42.662;23.352;2022-12-07T12:18:57;94603.16;;;12.88;54.96
41062;BME280;26812;42.662;23.352;2022-12-07T12:21:30;94593.78;;;14.46;52.34
41062;BME280;26812;42.662;23.352;2022-12-07T12:24:04;94591.19;;;16.25;45.42
41062;BME280;26812;42.662;23.352;2022-12-07T12:26:35;94570.72;;;16.77;43.46
41062;BME280;26812;42.662;23.352;2022-12-07T12:29:05;94582.03;;;17.28;41.86
41062;BME280;26812;42.662;23.352;2022-12-07T12:31:38;94579.31;;;17.85;41.33
41062;BME280;26812;42.662;23.352;2022-12-07T12:36:58;94554.31;;;18.50;38.73
41062;BME280;26812;42.662;23.352;2022-12-07T12:39:24;94558.69;;;18.21;38.93
41062;BME280;26812;42.662;23.352;2022-12-07T12:41:52;94562.31;;;17.38;40.80
41062;BME280;26812;42.662;23.352;2022-12-07T12:51:43;94553.03;;;18.77;38.53
41062;BME280;26812;42.662;23.352;2022-12-07T12:54:20;94557.06;;;20.46;35.90
41062;BME280;26812;42.662;23.352;2022-12-07T12:59:33;94549.63;;;23.14;30.62
41062;BME280;26812;42.662;23.352;2022-12-07T13:15:49;94547.00;;;19.64;35.10
41062;BME280;26812;42.662;23.352;2022-12-07T13:26:24;94557.84;;;16.74;41.39
41062;BME280;26812;42.662;23.352;2022-12-07T13:29:20;94543.75;;;16.23;42.49
41062;BME280;26812;42.662;23.352;2022-12-07T13:31:51;94553.44;;;15.81;43.70
41062;BME280;26812;42.662;23.352;2022-12-07T13:34:32;94541.97;;;15.34;45.01
41062;BME280;26812;42.662;23.352;2022-12-07T13:37:24;94534.31;;;15.20;45.45
41062;BME280;26812;42.662;23.352;2022-12-07T13:39:51;94540.16;;;15.03;46.10
41062;BME280;26812;42.662;23.352;2022-12-07T13:42:28;94532.81;;;14.24;48.09
41062;BME280;26812;42.662;23.352;2022-12-07T13:44:55;94537.75;;;14.50;48.75
41062;BME280;26812;42.662;23.352;2022-12-07T13:49:58;94524.28;;;15.59;45.45
41062;BME280;26812;42.662;23.352;2022-12-07T13:52:28;94537.88;;;15.05;46.99
41062;BME280;26812;42.662;23.352;2022-12-07T13:54:59;94535.63;;;15.45;46.44
41062;BME280;26812;42.662;23.352;2022-12-07T13:57:27;94529.03;;;15.62;45.93
41062;BME280;26812;42.662;23.352;2022-12-07T13:59:53;94502.28;;;15.45;45.83
41062;BME280;26812;42.662;23.352;2022-12-07T14:02:29;94518.00;;;15.36;46.04
41062;BME280;26812;42.662;23.352;2022-12-07T14:05:15;94530.38;;;15.17;46.88
41062;BME280;26812;42.662;23.352;2022-12-07T14:07:54;94524.81;;;14.95;47.21
41062;BME280;26812;42.662;23.352;2022-12-07T14:10:28;94526.88;;;14.66;47.87
41062;BME280;26812;42.662;23.352;2022-12-07T14:12:55;94533.53;;;14.53;48.27
41062;BME280;26812;42.662;23.352;2022-12-07T14:15:27;94538.06;;;14.33;48.92
41062;BME280;26812;42.662;23.352;2022-12-07T14:17:54;94534.34;;;13.94;50.93
41062;BME280;26812;42.662;23.352;2022-12-07T14:22:58;94533.06;;;13.20;52.66
41062;BME280;26812;42.662;23.352;2022-12-07T14:25:26;94546.66;;;13.11;52.74
41062;BME280;26812;42.662;23.352;2022-12-07T14:27:53;94543.09;;;12.95;53.42
41062;BME280;26812;42.662;23.352;2022-12-07T14:30:22;94532.19;;;12.55;54.66
41062;BME280;26812;42.662;23.352;2022-12-07T14:32:53;94546.94;;;12.45;55.72
41062;BME280;26812;42.662;23.352;2022-12-07T14:35:19;94538.84;;;11.88;57.32
41062;BME280;26812;42.662;23.352;2022-12-07T14:37:46;94537.31;;;11.66;58.49
41062;BME280;26812;42.662;23.352;2022-12-07T14:40:15;94525.09;;;11.47;59.12
41062;BME280;26812;42.662;23.352;2022-12-07T14:42:41;94544.56;;;11.53;59.28
41062;BME280;26812;42.662;23.352;2022-12-07T14:45:13;94534.75;;;11.48;59.19
41062;BME280;26812;42.662;23.352;2022-12-07T14:47:39;94531.56;;;11.34;59.71
41062;BME280;26812;42.662;23.352;2022-12-07T14:50:06;94541.28;;;11.27;60.49
41062;BME280;26812;42.662;23.352;2022-12-07T14:52:34;94543.19;;;11.26;60.05